createdAt,value
2018-11-03T00:00:13.890Z,43.75
2018-11-03T00:02:47.010Z,59.90
2018-11-03T00:05:19.584Z,46.48
2018-11-03T00:07:52.020Z,46.58
2018-11-03T00:10:39.309Z,62.93
2018-11-03T00:13:11.923Z,66.60
2018-11-03T00:15:43.952Z,55.80
2018-11-03T00:18:16.763Z,66.17
2018-11-03T00:20:49.346Z,55.50
2018-11-03T00:23:21.344Z,57.90
2018-11-03T00:25:53.590Z,59.10
2018-11-03T00:28:26.026Z,68.65
2018-11-03T00:30:58.197Z,57.05
2018-11-03T00:33:30.892Z,60.85
2018-11-03T00:36:03.730Z,59.45
2018-11-03T00:38:35.979Z,65.72
2018-11-03T00:41:08.530Z,58.42
2018-11-03T00:43:40.951Z,59.10
2018-11-03T00:46:13.218Z,68.55
2018-11-03T00:48:45.764Z,70.83
2018-11-03T00:51:17.831Z,75.00
2018-11-03T00:53:49.719Z,64.42
2018-11-03T00:56:21.648Z,69.53
2018-11-03T00:58:53.489Z,64.05
2018-11-03T01:01:25.343Z,63.48
2018-11-03T01:03:57.247Z,72.70
2018-11-03T01:06:29.177Z,69.58
2018-11-03T01:09:01.020Z,89.80
2018-11-03T01:11:32.956Z,106.67
2018-11-03T01:14:04.782Z,87.67
2018-11-03T01:16:36.685Z,102.58
2018-11-03T01:19:08.504Z,119.37
2018-11-03T01:21:40.412Z,108.07
2018-11-03T01:24:12.293Z,113.47
2018-11-03T01:26:44.443Z,131.00
2018-11-03T01:29:16.331Z,103.92
2018-11-03T01:31:48.152Z,74.45
2018-11-03T01:34:20.012Z,95.20
2018-11-03T01:36:51.942Z,103.30
2018-11-03T01:39:23.806Z,94.03
2018-11-03T01:41:55.647Z,87.85
2018-11-03T01:44:27.437Z,93.47
2018-11-03T01:46:59.343Z,110.05
2018-11-03T01:49:31.172Z,91.30
2018-11-03T01:52:03.026Z,105.10
2018-11-03T01:54:34.835Z,91.25
2018-11-03T01:57:06.699Z,87.12
2018-11-03T01:59:38.538Z,97.08
2018-11-03T02:02:10.383Z,92.65
2018-11-03T02:04:42.337Z,93.05
2018-11-03T02:07:14.155Z,88.22
2018-11-03T02:09:46.029Z,92.97
2018-11-03T02:12:17.868Z,104.90
2018-11-03T02:14:49.783Z,101.50
2018-11-03T02:17:21.613Z,100.47
2018-11-03T02:19:53.462Z,106.52
2018-11-03T02:22:25.311Z,114.20
2018-11-03T02:24:57.170Z,122.92
2018-11-03T02:27:29.011Z,92.25
2018-11-03T02:30:00.858Z,99.85
2018-11-03T02:32:32.654Z,96.22
2018-11-03T02:35:04.866Z,95.60
2018-11-03T02:37:36.978Z,110.08
2018-11-03T02:40:10.688Z,95.07
2018-11-03T02:42:42.850Z,133.95
2018-11-03T02:45:14.646Z,110.48
2018-11-03T02:47:46.495Z,92.27
2018-11-03T02:50:18.293Z,96.75
2018-11-03T02:52:50.209Z,88.85
2018-11-03T02:55:22.067Z,87.42
2018-11-03T02:57:53.902Z,87.08
2018-11-03T03:00:25.722Z,106.87
2018-11-03T03:02:57.552Z,94.47
2018-11-03T03:05:29.416Z,111.40
2018-11-03T03:08:01.308Z,105.92
2018-11-03T03:10:33.175Z,114.50
2018-11-03T03:13:05.006Z,130.97
2018-11-03T03:15:36.834Z,161.32
2018-11-03T03:18:08.644Z,116.08
2018-11-03T03:20:40.458Z,117.62
2018-11-03T03:23:12.340Z,118.80
2018-11-03T03:25:44.250Z,102.38
2018-11-03T03:28:16.020Z,120.08
2018-11-03T03:30:47.899Z,140.52
2018-11-03T03:33:19.792Z,103.78
2018-11-03T03:35:51.598Z,93.45
2018-11-03T03:38:23.478Z,116.45
2018-11-03T03:40:55.305Z,116.15
2018-11-03T03:43:27.155Z,132.27
2018-11-03T03:45:59.007Z,115.92
2018-11-03T03:48:30.938Z,171.13
2018-11-03T03:51:02.747Z,161.28
2018-11-03T03:53:34.599Z,101.67
2018-11-03T03:56:06.522Z,110.57
2018-11-03T03:58:38.364Z,122.05
2018-11-03T04:01:10.241Z,83.50
2018-11-03T04:03:42.221Z,100.92
2018-11-03T04:06:14.041Z,111.92
2018-11-03T04:08:45.814Z,119.72
2018-11-03T04:11:17.653Z,128.00
2018-11-03T04:13:49.746Z,166.77
2018-11-03T04:16:21.605Z,174.27
2018-11-03T04:18:53.591Z,185.93
2018-11-03T04:21:29.460Z,151.20
2018-11-03T04:24:01.317Z,142.70
2018-11-03T04:26:33.153Z,181.78
2018-11-03T04:29:04.985Z,164.05
2018-11-03T04:31:36.797Z,188.93
2018-11-03T04:34:08.685Z,188.35
2018-11-03T04:36:40.563Z,175.97
2018-11-03T04:39:13.111Z,169.07
2018-11-03T04:41:44.970Z,186.25
2018-11-03T04:44:16.805Z,188.05
2018-11-03T04:46:48.651Z,172.55
2018-11-03T04:49:20.487Z,177.55
2018-11-03T04:51:52.383Z,228.30
2018-11-03T04:54:24.215Z,265.73
2018-11-03T04:56:56.050Z,237.38
2018-11-03T04:59:27.925Z,192.22
2018-11-03T05:01:59.775Z,187.25
2018-11-03T05:04:31.612Z,188.03
2018-11-03T05:07:03.549Z,100.60
2018-11-03T05:09:35.353Z,99.03
2018-11-03T05:12:07.210Z,132.75
2018-11-03T05:14:39.121Z,113.75
2018-11-03T05:17:10.919Z,131.15
2018-11-03T05:19:42.779Z,147.75
2018-11-03T05:22:14.651Z,135.90
2018-11-03T05:24:46.562Z,106.07
2018-11-03T05:27:18.374Z,72.78
2018-11-03T05:29:50.220Z,86.08
2018-11-03T05:32:22.044Z,79.50
2018-11-03T05:34:53.927Z,124.78
2018-11-03T05:37:25.794Z,110.42
2018-11-03T05:39:57.697Z,97.50
2018-11-03T05:42:29.563Z,144.47
2018-11-03T05:45:01.396Z,133.55
2018-11-03T05:47:33.275Z,140.75
2018-11-03T05:50:06.055Z,175.72
2018-11-03T05:52:37.854Z,170.92
2018-11-03T05:55:10.816Z,162.37
2018-11-03T05:57:42.704Z,132.15
2018-11-03T06:00:14.592Z,170.22
2018-11-03T06:02:46.433Z,126.55
2018-11-03T06:05:18.217Z,97.22
2018-11-03T06:07:50.132Z,67.67
2018-11-03T06:10:21.931Z,68.57
2018-11-03T06:12:53.813Z,77.42
2018-11-03T06:15:25.634Z,85.72
2018-11-03T06:17:57.411Z,114.62
2018-11-03T06:20:29.249Z,147.20
2018-11-03T06:23:01.209Z,150.50
2018-11-03T06:25:33.001Z,154.38
2018-11-03T06:28:05.079Z,147.45
2018-11-03T06:30:37.285Z,199.80
2018-11-03T06:33:09.170Z,194.65
2018-11-03T06:35:41.031Z,187.10
2018-11-03T06:38:12.921Z,149.18
2018-11-03T06:40:44.794Z,168.97
2018-11-03T06:43:16.624Z,163.50
2018-11-03T06:45:49.962Z,168.78
2018-11-03T06:48:22.322Z,157.55
2018-11-03T06:50:54.198Z,147.32
2018-11-03T06:53:26.065Z,158.87
2018-11-03T06:55:57.888Z,153.23
2018-11-03T06:58:29.738Z,148.68
2018-11-03T07:01:01.600Z,122.78
2018-11-03T07:03:33.819Z,129.30
2018-11-03T07:06:05.674Z,124.20
2018-11-03T07:08:37.507Z,109.85
2018-11-03T07:11:09.318Z,85.77
2018-11-03T07:13:41.200Z,80.77
2018-11-03T07:16:13.031Z,88.90
2018-11-03T07:18:44.895Z,79.58
2018-11-03T07:21:16.717Z,62.90
2018-11-03T07:23:48.555Z,61.90
2018-11-03T07:26:20.423Z,55.63
2018-11-03T07:28:52.279Z,58.02
2018-11-03T07:31:24.218Z,48.92
2018-11-03T07:33:56.163Z,56.92
2018-11-03T07:36:28.072Z,47.80
2018-11-03T07:38:59.937Z,49.65
2018-11-03T07:41:31.927Z,46.53
2018-11-03T07:44:04.615Z,53.15
2018-11-03T07:46:36.431Z,46.42
2018-11-03T07:49:08.315Z,36.58
2018-11-03T07:51:40.107Z,44.53
2018-11-03T07:54:12.043Z,43.83
2018-11-03T07:56:43.935Z,40.83
2018-11-03T07:59:15.822Z,41.80
2018-11-03T08:01:47.708Z,46.80
2018-11-03T08:04:19.527Z,40.58
2018-11-03T08:06:51.451Z,42.25
2018-11-03T08:09:23.233Z,39.38
2018-11-03T08:11:55.090Z,34.65
2018-11-03T08:14:26.921Z,40.30
2018-11-03T08:16:58.770Z,33.55
2018-11-03T08:19:30.607Z,30.10
2018-11-03T08:22:02.583Z,33.35
2018-11-03T08:24:34.408Z,39.78
2018-11-03T08:27:06.260Z,25.65
2018-11-03T08:29:38.080Z,30.50
2018-11-03T08:32:09.952Z,28.70
2018-11-03T08:34:41.748Z,31.82
2018-11-03T08:37:13.690Z,29.12
2018-11-03T08:39:45.761Z,34.20
2018-11-03T08:42:17.554Z,28.25
2018-11-03T08:44:49.401Z,29.65
2018-11-03T08:47:21.288Z,26.23
2018-11-03T08:49:53.112Z,31.65
2018-11-03T08:52:25.039Z,25.20
2018-11-03T08:54:56.918Z,23.22
2018-11-03T08:57:28.839Z,26.27
2018-11-03T09:00:00.712Z,28.45
2018-11-03T09:02:32.651Z,21.17
2018-11-03T09:05:05.079Z,22.42
2018-11-03T09:07:37.382Z,19.70
2018-11-03T09:10:10.853Z,20.43
2018-11-03T09:12:42.811Z,20.63
2018-11-03T09:15:14.686Z,17.83
2018-11-03T09:17:46.551Z,19.63
2018-11-03T09:20:18.366Z,23.73
2018-11-03T09:22:50.234Z,18.77
2018-11-03T09:25:22.160Z,18.60
2018-11-03T09:27:54.021Z,19.33
2018-11-03T09:30:25.893Z,19.97
2018-11-03T09:32:57.743Z,18.60
2018-11-03T09:35:29.624Z,18.20
2018-11-03T09:38:01.580Z,20.67
2018-11-03T09:40:33.435Z,17.23
2018-11-03T09:43:05.554Z,18.77
2018-11-03T09:45:37.387Z,23.17
2018-11-03T09:48:09.259Z,23.97
2018-11-03T09:50:41.179Z,20.20
2018-11-03T09:53:12.988Z,27.27
2018-11-03T09:55:44.865Z,17.00
2018-11-03T09:58:16.750Z,21.03
2018-11-03T10:00:48.553Z,21.00
2018-11-03T10:03:20.410Z,18.40
2018-11-03T10:05:52.243Z,18.80
2018-11-03T10:08:24.190Z,22.17
2018-11-03T10:10:56.112Z,18.50
2018-11-03T10:13:28.017Z,22.67
2018-11-03T10:16:00.014Z,19.50
2018-11-03T10:18:33.525Z,24.43
2018-11-03T10:21:06.020Z,24.30
2018-11-03T10:23:37.917Z,18.60
2018-11-03T10:26:09.809Z,22.23
2018-11-03T10:28:41.646Z,20.63
2018-11-03T10:31:13.580Z,24.20
2018-11-03T10:33:45.511Z,19.97
2018-11-03T10:36:17.256Z,23.20
2018-11-03T10:38:49.276Z,20.80
2018-11-03T10:41:21.230Z,18.10
2018-11-03T10:43:53.174Z,18.67
2018-11-03T10:46:25.062Z,18.67
2018-11-03T10:48:56.851Z,23.17
2018-11-03T10:51:28.831Z,21.40
2018-11-03T10:54:07.775Z,20.93
2018-11-03T10:56:39.621Z,21.73
2018-11-03T10:59:11.455Z,23.33
2018-11-03T11:01:49.122Z,22.00
2018-11-03T11:04:26.607Z,24.00
2018-11-03T11:07:03.928Z,22.50
2018-11-03T11:09:41.322Z,21.70
2018-11-03T11:12:18.766Z,23.53
2018-11-03T11:14:50.618Z,22.10
2018-11-03T11:17:22.604Z,24.70
2018-11-03T11:19:55.447Z,21.03
2018-11-03T11:22:27.339Z,19.20
2018-11-03T11:24:59.369Z,23.70
2018-11-03T11:27:31.111Z,15.00
2018-11-03T11:30:02.978Z,18.23
2018-11-03T11:32:34.832Z,17.63
2018-11-03T11:35:06.718Z,19.83
2018-11-03T11:37:38.592Z,16.20
2018-11-03T11:40:10.506Z,18.93
2018-11-03T11:42:42.567Z,11.80
2018-11-03T11:45:14.463Z,9.90
2018-11-03T11:47:46.369Z,14.73
2018-11-03T11:50:18.535Z,12.77
2018-11-03T11:52:50.609Z,10.50
2018-11-03T11:55:22.545Z,8.97
2018-11-03T11:57:54.542Z,13.93
2018-11-03T12:00:26.567Z,10.90
2018-11-03T12:02:58.487Z,12.33
2018-11-03T12:05:30.324Z,9.13
2018-11-03T12:08:02.165Z,8.10
2018-11-03T12:10:34.138Z,7.63
2018-11-03T12:13:06.100Z,11.50
2018-11-03T12:15:37.951Z,10.23
2018-11-03T12:18:09.785Z,12.30
2018-11-03T12:20:41.655Z,14.47
2018-11-03T12:23:13.562Z,8.60
2018-11-03T12:25:45.450Z,9.57
2018-11-03T12:28:17.267Z,9.93
2018-11-03T12:30:49.153Z,9.27
2018-11-03T12:33:21.040Z,8.60
2018-11-03T12:35:52.877Z,10.43
2018-11-03T12:38:24.796Z,10.10
2018-11-03T12:40:56.839Z,9.30
2018-11-03T12:43:28.631Z,7.57
2018-11-03T12:46:00.735Z,10.27
2018-11-03T12:48:32.631Z,9.40
2018-11-03T12:51:04.616Z,10.97
2018-11-03T12:53:36.467Z,7.80
2018-11-03T12:56:08.253Z,11.37
2018-11-03T12:58:40.055Z,13.27
2018-11-03T13:01:11.947Z,11.53
2018-11-03T13:03:43.872Z,10.00
2018-11-03T13:06:15.687Z,12.10
2018-11-03T13:08:47.571Z,12.43
2018-11-03T13:11:19.386Z,11.87
2018-11-03T13:13:51.320Z,8.83
2018-11-03T13:16:23.151Z,10.50
2018-11-03T13:18:55.080Z,11.33
2018-11-03T13:21:26.980Z,11.87
2018-11-03T13:23:58.803Z,10.57
2018-11-03T13:26:31.381Z,13.67
2018-11-03T13:29:03.324Z,12.83
2018-11-03T13:31:35.219Z,10.00
2018-11-03T13:34:07.078Z,12.57
2018-11-03T13:36:38.954Z,11.33
2018-11-03T13:39:10.845Z,11.20
2018-11-03T13:41:42.796Z,13.80
2018-11-03T13:44:14.713Z,16.83
2018-11-03T13:46:46.613Z,14.23
2018-11-03T13:49:18.523Z,8.97
2018-11-03T13:51:50.360Z,12.90
2018-11-03T13:54:22.163Z,8.57
2018-11-03T13:56:54.052Z,12.33
2018-11-03T13:59:25.898Z,10.23
2018-11-03T14:01:57.746Z,12.10
2018-11-03T14:04:29.999Z,12.07
2018-11-03T14:07:01.969Z,14.63
2018-11-03T14:09:33.972Z,10.00
2018-11-03T14:12:05.993Z,11.20
2018-11-03T14:14:38.215Z,12.20
2018-11-03T14:17:10.143Z,12.70
2018-11-03T14:19:42.087Z,11.00
2018-11-03T14:22:14.059Z,15.28
2018-11-03T14:24:45.957Z,9.43
2018-11-03T14:27:17.926Z,8.85
2018-11-03T14:29:49.733Z,17.17
2018-11-03T14:32:21.612Z,16.05
2018-11-03T14:34:53.537Z,8.60
2018-11-03T14:37:25.481Z,11.43
2018-11-03T14:39:57.367Z,8.58
2018-11-03T14:42:29.221Z,10.68
2018-11-03T14:45:01.222Z,6.97
2018-11-03T14:47:33.119Z,9.15
2018-11-03T14:50:05.592Z,10.43
2018-11-03T14:52:38.623Z,9.78
2018-11-03T14:55:11.126Z,12.30
2018-11-03T14:57:42.978Z,16.48
2018-11-03T15:00:15.740Z,12.58
2018-11-03T15:02:47.616Z,13.40
2018-11-03T15:05:20.544Z,16.48
2018-11-03T15:07:52.408Z,18.35
2018-11-03T15:10:24.400Z,13.15
2018-11-03T15:12:57.406Z,13.55
2018-11-03T15:15:29.339Z,13.22
2018-11-03T15:18:01.271Z,16.05
2018-11-03T15:20:33.205Z,12.68
2018-11-03T15:23:05.095Z,16.35
2018-11-03T15:25:37.033Z,19.67
2018-11-03T15:28:08.914Z,15.88
2018-11-03T15:30:40.785Z,11.03
2018-11-03T15:33:12.734Z,16.65
2018-11-03T15:35:44.710Z,13.62
2018-11-03T15:38:16.600Z,12.15
2018-11-03T15:40:48.560Z,17.42
2018-11-03T15:43:20.410Z,15.32
2018-11-03T15:45:52.361Z,14.55
2018-11-03T15:48:24.218Z,14.00
2018-11-03T15:50:56.095Z,18.00
2018-11-03T15:53:27.999Z,15.72
2018-11-03T15:55:59.865Z,24.32
2018-11-03T15:58:31.703Z,17.45
2018-11-03T16:01:03.610Z,16.52
2018-11-03T16:03:35.490Z,19.73
2018-11-03T16:06:07.321Z,20.88
2018-11-03T16:08:39.211Z,25.97
2018-11-03T16:11:11.072Z,24.05
2018-11-03T16:13:42.948Z,24.05
2018-11-03T16:16:14.785Z,20.88
2018-11-03T16:18:46.706Z,21.73
2018-11-03T16:21:18.515Z,29.80
2018-11-03T16:23:50.403Z,30.37
2018-11-03T16:26:22.292Z,22.37
2018-11-03T16:28:55.104Z,18.30
2018-11-03T16:31:27.047Z,27.58
2018-11-03T16:33:58.880Z,22.22
2018-11-03T16:36:30.739Z,24.02
2018-11-03T16:39:02.969Z,24.82
2018-11-03T16:41:34.924Z,21.93
2018-11-03T16:44:06.806Z,25.20
2018-11-03T16:46:38.620Z,22.75
2018-11-03T16:49:10.510Z,25.55
2018-11-03T16:51:42.340Z,19.45
2018-11-03T16:54:14.300Z,20.23
2018-11-03T16:56:46.590Z,20.05
2018-11-03T16:59:18.479Z,17.90
2018-11-03T17:01:50.308Z,18.52
2018-11-03T17:04:23.092Z,22.98
2018-11-03T17:06:55.023Z,37.60
2018-11-03T17:09:26.834Z,22.20
2018-11-03T17:11:58.733Z,28.65
2018-11-03T17:14:30.611Z,31.55
2018-11-03T17:17:02.628Z,22.20
2018-11-03T17:19:34.602Z,22.20
2018-11-03T17:22:06.490Z,24.15
2018-11-03T17:24:38.343Z,24.00
2018-11-03T17:27:10.191Z,27.70
2018-11-03T17:29:42.052Z,21.85
2018-11-03T17:32:13.987Z,20.60
2018-11-03T17:34:45.891Z,23.75
2018-11-03T17:37:17.749Z,14.00
2018-11-03T17:39:49.558Z,19.32
2018-11-03T17:42:21.507Z,16.17
2018-11-03T17:44:53.503Z,16.65
2018-11-03T17:47:25.350Z,20.23
2018-11-03T17:49:57.209Z,20.32
2018-11-03T17:52:29.082Z,13.48
2018-11-03T17:55:00.931Z,17.95
2018-11-03T17:57:32.904Z,11.28
2018-11-03T18:00:06.768Z,22.40
2018-11-03T18:02:38.537Z,15.48
2018-11-03T18:05:10.411Z,16.40
2018-11-03T18:07:43.271Z,18.10
2018-11-03T18:10:15.179Z,16.45
2018-11-03T18:12:47.034Z,16.85
2018-11-03T18:15:18.892Z,18.27
2018-11-03T18:17:50.695Z,17.70
2018-11-03T18:20:22.587Z,17.65
2018-11-03T18:22:54.500Z,17.60
2018-11-03T18:25:26.372Z,18.70
2018-11-03T18:27:58.237Z,17.85
2018-11-03T18:30:30.136Z,13.40
2018-11-03T18:33:02.060Z,15.60
2018-11-03T18:35:33.911Z,13.50
2018-11-03T18:38:05.881Z,17.35
2018-11-03T18:40:37.776Z,13.53
2018-11-03T18:43:09.752Z,21.42
2018-11-03T18:45:41.602Z,22.52
2018-11-03T18:48:13.468Z,13.50
2018-11-03T18:50:46.295Z,14.85
2018-11-03T18:53:18.119Z,18.60
2018-11-03T18:55:50.020Z,16.73
2018-11-03T18:58:21.891Z,17.02
2018-11-03T19:00:53.750Z,15.55
2018-11-03T19:03:25.713Z,16.45
2018-11-03T19:05:57.592Z,18.40
2018-11-03T19:08:29.526Z,16.20
2018-11-03T19:11:01.457Z,22.20
2018-11-03T19:13:33.394Z,14.95
2018-11-03T19:16:05.350Z,16.52
2018-11-03T19:18:37.239Z,14.73
2018-11-03T19:21:09.063Z,15.13
2018-11-03T19:23:41.006Z,13.98
2018-11-03T19:26:12.872Z,18.62
2018-11-03T19:28:44.744Z,13.78
2018-11-03T19:31:16.633Z,18.67
2018-11-03T19:33:48.522Z,18.80
2018-11-03T19:36:20.376Z,17.00
2018-11-03T19:38:52.206Z,17.32
2018-11-03T19:41:24.071Z,18.82
2018-11-03T19:43:55.972Z,22.62
2018-11-03T19:46:27.805Z,19.02
2018-11-03T19:48:59.717Z,18.10
2018-11-03T19:51:31.689Z,20.97
2018-11-03T19:54:03.886Z,21.52
2018-11-03T19:56:35.739Z,21.85
2018-11-03T19:59:07.627Z,24.67
2018-11-03T20:01:39.533Z,18.42
2018-11-03T20:04:11.430Z,22.73
2018-11-03T20:06:43.927Z,20.17
2018-11-03T20:09:15.871Z,22.42
2018-11-03T20:11:47.781Z,21.82
2018-11-03T20:14:19.686Z,21.37
2018-11-03T20:16:51.578Z,22.22
2018-11-03T20:19:23.478Z,18.37
2018-11-03T20:21:55.351Z,20.75
2018-11-03T20:24:27.159Z,18.80
2018-11-03T20:26:58.975Z,20.40
2018-11-03T20:29:30.894Z,17.25
2018-11-03T20:32:02.881Z,21.73
2018-11-03T20:34:34.679Z,25.45
2018-11-03T20:37:07.205Z,21.00
2018-11-03T20:39:39.086Z,23.85
2018-11-03T20:42:10.979Z,15.90
2018-11-03T20:44:42.860Z,20.90
2018-11-03T20:47:14.753Z,23.25
2018-11-03T20:49:46.682Z,20.95
2018-11-03T20:52:18.566Z,20.85
2018-11-03T20:54:50.462Z,21.02
2018-11-03T20:57:22.318Z,21.35
2018-11-03T20:59:54.236Z,21.80
2018-11-03T21:02:26.135Z,20.92
2018-11-03T21:04:58.071Z,23.50
2018-11-03T21:07:29.946Z,19.87
2018-11-03T21:10:01.860Z,17.62
2018-11-03T21:12:33.727Z,24.60
2018-11-03T21:15:05.618Z,21.27
2018-11-03T21:17:38.352Z,23.90
2018-11-03T21:20:10.218Z,21.27
2018-11-03T21:22:42.129Z,21.73
2018-11-03T21:25:14.022Z,20.60
2018-11-03T21:27:45.894Z,24.82
2018-11-03T21:30:17.901Z,27.35
2018-11-03T21:32:49.762Z,25.32
2018-11-03T21:35:21.512Z,26.30
2018-11-03T21:37:53.403Z,28.98
2018-11-03T21:40:25.346Z,24.40
2018-11-03T21:42:57.195Z,24.25
2018-11-03T21:45:29.075Z,25.45
2018-11-03T21:48:00.896Z,26.20
2018-11-03T21:50:32.761Z,25.37
2018-11-03T21:53:04.684Z,25.05
2018-11-03T21:55:36.556Z,25.75
2018-11-03T21:58:08.470Z,21.62
2018-11-03T22:00:40.418Z,26.27
2018-11-03T22:03:12.318Z,30.30
2018-11-03T22:05:44.194Z,25.30
2018-11-03T22:08:16.078Z,29.05
2018-11-03T22:10:47.930Z,26.80
2018-11-03T22:13:19.775Z,22.85
2018-11-03T22:15:51.715Z,27.07
2018-11-03T22:18:23.482Z,25.57
2018-11-03T22:20:55.312Z,32.23
2018-11-03T22:23:27.182Z,27.32
2018-11-03T22:25:59.001Z,27.70
2018-11-03T22:28:30.913Z,29.20
2018-11-03T22:31:02.746Z,32.30
2018-11-03T22:33:34.757Z,32.58
2018-11-03T22:36:06.636Z,29.72
2018-11-03T22:38:38.472Z,27.00
2018-11-03T22:41:10.392Z,29.67
